Aérodrome :
LOGIN :

S'inscrire | Disclaimer

   EN    FR    IT 

 










Légende :    VFR   VFR Marginal   IFR   IFR Intensif   IFR Très Intensif
Visi : 
Plafond : 
>= 8 km
>= 3000ft
5 à 8 km
1000 à 3000 ft
1500m à 5 km
500 à 1000 ft
800 à 1500m
200 à 500 ft
< 800m
< 200 ft
Symboles :   Orages  Brouillard  Fortes neiges  Fortes précipitations  Vent > 20 kt
SIGMETs :   Divers  Orages  Givrage  Turbulence  Onde Orograph.  Cendres Volcan.






- Altitude de l'aérodrome : 30 ft
- Code IATA : CFN


EIDL - Donegal

DERNIER METAR :
  • 211930Z 05006KT 020V080 9999 OVC025 06/02 Q0998

METARs EXPIRÉS :
  • 211900Z 09007G20KT 010V160 9999 OVC023 07/02 Q0998
  • 211830Z 08006KT 040V140 9999 OVC023 07/02 Q0998
  • 211800Z 11011KT 070V140 9999 SCT024 07/02 Q0999
  • 211730Z 12015KT 9999 SCT024 07/02 Q0998
  • 211700Z 11008KT 9999 BKN024 07/02 Q0999

TAF TAF EIDL
Valide du 21 à 18h jusqu'au 22 à 03h UTC


211700Z 2118/2203 13022KT 9999 BKN035
BECMG 2118/2119 10012KT



MET'MAP, la Météo Aéronautique d'un coup d'oeil ! - Copyright ORBIFLY Décembre 2007 - Disclaimer

ORBIFLY MET'MAP TEAM :

Programmation & Développement : Alexandra Zaïnal
Conception & Développement : Baudouin d'Aumeries
Co-Programmation & Développement : Marc-Olivier Méhu
Soutien technique & logistique : Manuel Goepfert

Contact : metmap@orbifly.com




SOURCES & CREDITS :

   NOAA